• Join FlightAware (Why Join?)
  • Login
  • US Flag 
06:22AM EDT


 

Airport Tracker/Info


-or-


 

Live Flight TrackerFlight Track Log ✈ SWA2354 ✈ 21-Jun-2013 ✈ KHOU - KBWI

Flight Track Log - Related Links

Times and Time Zones

All times are in EDT time to prevent confusion due to time zone crossing. See the SWA2354 flight status page for this flight to view local times or setup timezone preferences in your user account.

Time Position Orientation Groundspeed Altitude Reporting Facility
EDT Latitude Longitude Course Direction KTS MPH feet Rate Location/Type
09:34PM 29.6333 -95.2653 61° Northeast 152 175 600  Level Houston Center
09:35PM 29.6492 -95.2322 61° Northeast 216 249 1,900 2,040 Climbing Houston Center
09:36PM 29.7119 -95.2533 344° North 239 275 4,400 2,160 Climbing Houston Center
09:37PM 29.7817 -95.2903 335° Northwest 267 307 6,500 2,160 Climbing Houston Center
09:38PM 29.8558 -95.3294 335° Northwest 289 333 9,000 2,580 Climbing Houston Center
09:39PM 29.9339 -95.2833 27° Northeast 323 372 11,900 3,000 Climbing Houston Center
09:40PM 30.0214 -95.2286 28° Northeast 347 399 15,200 2,880 Climbing Houston Center
09:41PM 30.1108 -95.1736 28° Northeast 360 414 17,800 2,520 Climbing Houston Center
09:42PM 30.2061 -95.1133 29° Northeast 383 441 20,400 2,460 Climbing Houston Center
09:43PM 30.3031 -95.0519 29° Northeast 394 453 22,900 2,160 Climbing Houston Center
09:44PM 30.4042 -94.9869 29° Northeast 410 472 24,900 1,980 Climbing Houston Center
09:45PM 30.5281 -94.9072 29° Northeast 428 493 27,000 1,800 Climbing Houston Center
09:46PM 30.6333 -94.8300 32° Northeast 443 510 28,600 1,500 Climbing Houston Center
09:47PM 30.7417 -94.7472 33° Northeast 463 533 30,100 1,740 Climbing Houston Center
09:48PM 30.8497 -94.6631 34° Northeast 470 541 32,200 2,040 Climbing Houston Center
09:49PM 30.9542 -94.5822 34° Northeast 450 518 34,300 1,620 Climbing Houston Center
09:50PM 31.0578 -94.5017 34° Northeast 452 520 35,600 1,380 Climbing Houston Center
09:51PM 31.1831 -94.4036 34° Northeast 458 527 37,200 1,380 Climbing Houston Center
09:52PM 31.2881 -94.3222 34° Northeast 458 527 38,500 840 Climbing Houston Center
09:53PM 31.3928 -94.2411 33° Northeast 456 525 39,000 240 Climbing Houston Center
09:54PM 31.4969 -94.1600 34° Northeast 452 520 39,000  Level Houston Center
09:55PM 31.6003 -94.0792 34° Northeast 448 516 39,000  Level Houston Center
09:56PM 31.6972 -93.9892 38° Northeast 446 513 39,000  Level Houston Center
09:57PM 31.7758 -93.8742 51° Northeast 452 520 39,000  Level Houston Center
09:58PM 31.8567 -93.7544 51° Northeast 448 516 39,000  Level Houston Center
09:59PM 31.9336 -93.6375 52° Northeast 451 519 39,000  Level Houston Center
10:00PM 32.0108 -93.5206 52° Northeast 451 519 39,000  Level Houston Center
10:01PM 32.0883 -93.4039 52° Northeast 451 519 39,000  Level Houston Center
10:02PM 32.1664 -93.2853 52° Northeast 456 525 39,000  Level Houston Center
10:04PM 32.2778 -93.1136 52° Northeast 466 536 39,000  Level Fort Worth Center
10:05PM 32.3572 -92.9967 51° Northeast 460 529 39,000  Level Fort Worth Center
10:06PM 32.4361 -92.8697 54° Northeast 456 525 39,000  Level Fort Worth Center
10:07PM 32.5172 -92.7475 52° Northeast 466 536 39,000  Level Fort Worth Center
10:08PM 32.5900 -92.6303 54° Northeast 466 536 39,000  Level Fort Worth Center
10:09PM 32.6731 -92.5075 51° Northeast 461 531 39,000  Level Fort Worth Center
10:10PM 32.7497 -92.3872 53° Northeast 461 531 39,000  Level Fort Worth Center
10:12PM 32.9206 -92.1219 52° Northeast 459 528 39,000  Level Memphis Center
10:13PM 33.0017 -91.9897 54° Northeast 451 519 39,000  Level Memphis Center
10:14PM 33.0761 -91.8694 54° Northeast 446 513 39,000  Level Memphis Center
10:15PM 33.1506 -91.7517 53° Northeast 446 513 39,000  Level Memphis Center
10:16PM 33.2292 -91.6314 52° Northeast 446 513 39,000  Level Memphis Center
10:17PM 33.3011 -91.5156 53° Northeast 446 513 39,000  Level Memphis Center
10:18PM 33.3775 -91.3947 53° Northeast 446 513 39,000  Level Memphis Center
10:19PM 33.4494 -91.2758 54° Northeast 446 513 39,000  Level Memphis Center
10:20PM 33.5272 -91.1572 52° Northeast 446 513 39,000  Level Memphis Center
10:21PM 33.6011 -91.0381 53° Northeast 446 513 39,000  Level Memphis Center
10:22PM 33.6769 -90.9164 53° Northeast 446 513 39,000  Level Memphis Center
10:23PM 33.7503 -90.7969 54° Northeast 451 519 39,000  Level Memphis Center
10:24PM 33.8239 -90.6772 53° Northeast 451 519 39,000  Level Memphis Center
10:25PM 33.8950 -90.5575 54° Northeast 444 511 39,000  Level Memphis Center
10:26PM 33.9619 -90.4472 54° Northeast 444 511 39,000  Level Memphis Center
10:27PM 34.0350 -90.3269 54° Northeast 444 511 39,000  Level Memphis Center
10:28PM 34.1078 -90.2042 54° Northeast 444 511 39,000  Level Memphis Center
10:29PM 34.1828 -90.0808 54° Northeast 444 511 39,000  Level Memphis Center
10:30PM 34.2556 -89.9575 54° Northeast 444 511 39,000  Level Memphis Center
10:31PM 34.3281 -89.8364 54° Northeast 444 511 39,000  Level Memphis Center
10:32PM 34.4006 -89.7128 55° Northeast 449 517 39,000  Level Memphis Center
10:33PM 34.4728 -89.5889 55° Northeast 449 517 39,000  Level Memphis Center
10:34PM 34.5450 -89.4694 54° Northeast 449 517 39,000  Level Memphis Center
10:35PM 34.6172 -89.3453 55° Northeast 444 511 39,000  Level Memphis Center
10:36PM 34.6911 -89.2206 54° Northeast 450 518 39,000  Level Memphis Center
10:37PM 34.7650 -89.0956 54° Northeast 455 524 39,000  Level Memphis Center
10:38PM 34.8450 -88.9628 54° Northeast 450 518 39,000  Level Memphis Center
10:39PM 34.9186 -88.8375 54° Northeast 450 518 39,000  Level Memphis Center
10:40PM 34.9922 -88.7144 54° Northeast 450 518 39,000  Level Memphis Center
10:41PM 35.0614 -88.5914 55° Northeast 450 518 39,000  Level Memphis Center
10:42PM 35.1183 -88.4936 55° Northeast 450 518 39,000  Level Memphis Center
10:43PM 35.1978 -88.3675 52° Northeast 443 510 39,000  Level Memphis Center
10:44PM 35.2644 -88.2386 58° Northeast 438 504 39,000  Level Memphis Center
10:45PM 35.3164 -88.1050 64° Northeast 433 498 39,000  Level Memphis Center
10:46PM 35.3681 -87.9714 65° Northeast 433 498 39,000  Level Memphis Center
10:47PM 35.4172 -87.8194 68° East 426 490 39,000  Level Memphis Center
10:48PM 35.4708 -87.6878 63° Northeast 420 483 39,000  Level Memphis Center
10:49PM 35.5222 -87.5561 64° Northeast 425 489 39,000  Level Memphis Center
10:50PM 35.5756 -87.4267 63° Northeast 425 489 39,000  Level Memphis Center
10:51PM 35.6264 -87.2947 65° Northeast 430 495 39,000  Level Memphis Center
10:52PM 35.6694 -87.1781 66° East 420 483 39,000  Level Memphis Center
10:53PM 35.7203 -87.0483 64° Northeast 420 483 39,000  Level Memphis Center
10:54PM 35.7669 -86.9211 66° East 409 471 39,000  Level Memphis Center
10:55PM 35.8175 -86.7908 64° Northeast 409 471 39,000  Level Memphis Center
10:56PM 35.8678 -86.6633 64° Northeast 409 471 39,000  Level Memphis Center
10:57PM 35.9139 -86.5331 66° East 409 471 39,000  Level Memphis Center
10:58PM 35.9642 -86.4075 64° Northeast 404 465 39,000  Level Memphis Center
10:59PM 36.0103 -86.2797 66° East 404 465 39,000  Level Memphis Center
11:00PM 36.0581 -86.1539 65° Northeast 404 465 39,000  Level Memphis Center
11:01PM 36.1039 -86.0336 65° Northeast 391 450 39,000  Level Memphis Center
11:02PM 36.1497 -85.9103 65° Northeast 391 450 39,000  Level Memphis Center
11:03PM 36.1978 -85.7797 65° Northeast 396 456 39,000  Level Indianapolis Center
11:05PM 36.2983 -85.5042 66° East 397 457 39,000  Level Indianapolis Center
11:06PM 36.3439 -85.3811 65° Northeast 394 453 39,000  Level Indianapolis Center
11:07PM 36.3889 -85.2553 66° East 396 456 39,000  Level Indianapolis Center
11:08PM 36.4344 -85.1289 66° East 397 457 39,000  Level Indianapolis Center
11:09PM 36.4789 -85.0017 66° East 400 460 39,000  Level Indianapolis Center
11:10PM 36.5247 -84.8744 66° East 401 461 39,000  Level Indianapolis Center
11:11PM 36.5692 -84.7464 67° East 401 461 39,000  Level Indianapolis Center
11:12PM 36.6150 -84.6189 66° East 403 464 39,000  Level Indianapolis Center
11:13PM 36.6597 -84.4925 66° East 404 465 39,000  Level Indianapolis Center
11:14PM 36.7050 -84.3631 66° East 408 470 39,000  Level Indianapolis Center
11:15PM 36.7481 -84.2297 68° East 414 476 39,000  Level Indianapolis Center
11:16PM 36.7931 -84.0978 67° East 412 474 39,000  Level Indianapolis Center
11:17PM 36.8439 -83.9425 68° East 413 475 39,000  Level Indianapolis Center
11:18PM 36.8886 -83.8094 67° East 413 475 39,000  Level Indianapolis Center
11:19PM 36.9306 -83.6758 69° East 415 478 39,000  Level Indianapolis Center
11:20PM 36.9756 -83.5419 67° East 415 478 39,000  Level Indianapolis Center
11:21PM 37.0194 -83.4058 68° East 421 484 39,000  Level Indianapolis Center
11:22PM 37.0644 -83.2692 68° East 420 483 39,000  Level Indianapolis Center
11:23PM 37.1094 -83.1311 68° East 424 488 39,000  Level Indianapolis Center
11:24PM 37.1542 -82.9894 68° East 430 495 39,000  Level Indianapolis Center
11:25PM 37.2000 -82.8472 68° East 436 502 39,000  Level Indianapolis Center
11:26PM 37.2442 -82.7053 69° East 436 502 39,000  Level Indianapolis Center
11:27PM 37.2878 -82.5642 69° East 433 498 39,000  Level Indianapolis Center
11:28PM 37.3328 -82.4228 68° East 437 503 39,000  Level Indianapolis Center
11:29PM 37.3772 -82.2806 68° East 437 503 39,000  Level Indianapolis Center
11:30PM 37.4211 -82.1389 69° East 435 501 39,000  Level Indianapolis Center
11:31PM 37.4653 -81.9975 68° East 434 499 39,000  Level Indianapolis Center
11:32PM 37.5150 -81.8303 69° East 435 501 39,000  Level Indianapolis Center
11:33PM 37.5586 -81.6886 69° East 435 501 39,000  Level Indianapolis Center
11:34PM 37.6014 -81.5453 69° East 436 502 39,000  Level Indianapolis Center
11:35PM 37.6456 -81.4014 69° East 436 502 39,000  Level Indianapolis Center
11:36PM 37.6869 -81.2611 70° East 439 505 39,000  Level Indianapolis Center
11:38PM 37.7294 -81.1214 69° East 440 506 39,000  Level Indianapolis Center
11:39PM 37.7706 -80.9792 70° East 442 509 39,000  Level Indianapolis Center
11:40PM 37.8150 -80.8267 70° East 442 509 39,000  Level Indianapolis Center
11:41PM 37.8583 -80.6811 69° East 443 510 39,000  Level Indianapolis Center
11:42PM 37.9000 -80.5372 70° East 439 505 39,000  Level Indianapolis Center
11:43PM 37.9439 -80.3847 70° East 438 504 39,000  Level Indianapolis Center
11:44PM 37.9847 -80.2450 70° East 436 502 39,000  Level Indianapolis Center
11:45PM 38.0247 -80.1069 70° East 430 495 39,000  Level Indianapolis Center
11:46PM 38.0722 -79.9406 70° East 429 494 39,000  Level Indianapolis Center
11:47PM 38.1111 -79.8050 70° East 423 487 39,000  Level Indianapolis Center
11:48PM 38.1489 -79.6706 70° East 415 478 39,000  Level Indianapolis Center
11:49PM 38.1869 -79.5350 70° East 416 479 39,000 -120 Level Indianapolis Center
11:50PM 38.2239 -79.4022 70° East 410 472 38,800 -660 Descending Indianapolis Center
11:51PM 38.2814 -79.2131 69° East 410 472 37,500 -960 Descending Washington Center
11:52PM 38.3183 -79.0850 70° East 410 472 36,600 -900 Descending Washington Center
11:53PM 38.3558 -78.9492 71° East 410 472 35,700 -960 Descending Washington Center
11:54PM 38.3908 -78.8075 72° East 410 472 34,700 -1,020 Descending Washington Center
11:55PM 38.4439 -78.6083 71° East 420 483 33,400 -1,680 Descending Washington Center
11:56PM 38.4831 -78.4589 71° East 425 489 30,700 -3,000 Descending Washington Center
11:57PM 38.5242 -78.3117 70° East 435 501 27,500 -3,000 Descending Washington Center
11:58PM 38.5628 -78.1619 72° East 435 501 24,600 -2,820 Descending Washington Center
11:59PM 38.6014 -78.0172 71° East 435 501 21,800 -2,760 Descending Washington Center
12:00AM 38.6372 -77.8775 72° East 425 489 19,200 -1,440 Descending Washington Center
12:01AM 38.6483 -77.7342 84° East 412 474 19,000 -120 Descending Washington Center
12:02AM 38.6667 -77.5833 81° East 406 467 19,000 -1,080 Level Potomac TRACON
12:04AM 38.6833 -77.3000 86° East 388 447 16,000 -1,440 Descending Potomac TRACON
12:05AM 38.6833 -77.1667 90° East 370 426 14,600 -1,860 Descending Potomac TRACON
12:06AM 38.6833 -77.0333 90° East 366 421 12,200 -2,160 Descending Potomac TRACON
12:07AM 38.7000 -76.9167 80° East 353 406 10,500 -1,320 Descending Potomac TRACON
12:08AM 38.7167 -76.8167 78° East 315 362 9,900 -1,320 Descending Potomac TRACON
12:09AM 38.8000 -76.8000 North 282 325 8,100 -1,800 Descending Potomac TRACON
12:10AM 38.8833 -76.8000 360° North 267 307 6,200 -1,560 Descending Potomac TRACON
12:11AM 38.9500 -76.7833 11° North 251 289 4,900 -1,560 Descending Potomac TRACON
12:12AM 39.0167 -76.7833 360° North 264 304 3,300 -1,380 Descending Potomac TRACON
12:13AM 39.0667 -76.7833 360° North 260 299 2,500 -660 Descending Potomac TRACON
12:14AM 39.1333 -76.7833 360° North 223 257 2,100 -660 Descending Potomac TRACON
12:15AM 39.1833 -76.7500 27° Northeast 161 185 1,200 -900 Descending Potomac TRACON
12:16AM 39.1833 -76.7000 90° East 134 154 400 -900 Descending Potomac TRACON
12:18AM 39.1754 -76.6683 108° East  Level Estimated
12:25AM 39.1754 -76.6683 293° West  Level Estimated
12:26AM 39.1754 -76.6683 293° West  Level Estimated